createdAt,value
2022-12-26T00:00:31.799Z,97939.41
2022-12-26T00:02:58.395Z,97952.31
2022-12-26T00:05:24.914Z,97944.06
2022-12-26T00:07:51.393Z,97951.00
2022-12-26T00:10:17.903Z,97944.06
2022-12-26T00:12:44.467Z,97942.88
2022-12-26T00:15:11.336Z,97937.09
2022-12-26T00:17:37.914Z,97936.00
2022-12-26T00:20:05.204Z,97942.34
2022-12-26T00:22:31.696Z,97933.75
2022-12-26T00:24:58.156Z,97938.06
2022-12-26T00:27:24.597Z,97941.66
2022-12-26T00:29:51.116Z,97935.94
2022-12-26T00:32:17.565Z,97926.22
2022-12-26T00:34:44.101Z,97923.22
2022-12-26T00:37:10.637Z,97935.88
2022-12-26T00:39:37.123Z,97940.22
2022-12-26T00:42:03.759Z,97940.06
2022-12-26T00:44:30.264Z,97940.53
2022-12-26T00:46:56.890Z,97946.06
2022-12-26T00:49:23.545Z,97939.94
2022-12-26T00:51:50.039Z,97940.44
2022-12-26T00:54:17.743Z,97942.13
2022-12-26T00:56:44.221Z,97947.84
2022-12-26T00:59:10.730Z,97956.47
2022-12-26T01:01:37.392Z,97955.13
2022-12-26T01:04:04.779Z,97957.44
2022-12-26T01:06:31.363Z,97932.50
2022-12-26T01:08:59.427Z,97935.16
2022-12-26T01:11:41.117Z,97948.19
2022-12-26T01:14:15.222Z,97955.28
2022-12-26T01:16:45.271Z,97961.84
2022-12-26T01:19:13.626Z,97958.03
2022-12-26T01:21:40.893Z,97954.56
2022-12-26T01:24:07.467Z,97961.00
2022-12-26T01:26:34.038Z,97963.41
2022-12-26T01:29:00.491Z,97968.91
2022-12-26T01:31:27.012Z,97976.72
2022-12-26T01:33:53.486Z,97982.81
2022-12-26T01:36:20.141Z,97993.00
2022-12-26T01:38:46.692Z,97993.13
2022-12-26T01:41:16.639Z,97997.47
2022-12-26T01:44:06.789Z,97994.00
2022-12-26T01:46:45.751Z,97996.50
2022-12-26T01:49:33.926Z,97994.84
2022-12-26T01:52:06.875Z,97991.75
2022-12-26T01:54:42.572Z,97985.13
2022-12-26T01:57:24.463Z,97984.06
2022-12-26T01:59:53.320Z,97997.25
2022-12-26T02:02:23.229Z,97995.19
2022-12-26T02:05:10.463Z,97987.63
2022-12-26T02:07:40.527Z,97976.78
2022-12-26T02:10:15.586Z,97983.09
2022-12-26T02:12:43.008Z,97983.59
2022-12-26T02:15:23.749Z,97984.81
2022-12-26T02:17:50.189Z,97979.84
2022-12-26T02:20:29.636Z,97985.72
2022-12-26T02:23:42.787Z,97977.13
2022-12-26T02:26:41.866Z,97989.69
2022-12-26T02:30:05.632Z,97992.56
2022-12-26T02:33:14.527Z,97999.53
2022-12-26T02:35:53.039Z,98003.94
2022-12-26T02:38:47.482Z,98009.59
2022-12-26T02:41:55.129Z,97990.78
2022-12-26T02:45:17.830Z,97999.75
2022-12-26T02:48:13.601Z,97998.69
2022-12-26T02:51:32.670Z,97997.50
2022-12-26T02:54:42.324Z,98003.34
2022-12-26T02:57:37.608Z,97986.25
2022-12-26T03:00:34.969Z,97999.06
2022-12-26T03:03:29.525Z,98009.72
2022-12-26T03:06:33.385Z,98002.16
2022-12-26T03:09:53.821Z,97998.06
2022-12-26T03:12:38.545Z,98004.56
2022-12-26T03:15:18.060Z,98004.94
2022-12-26T03:17:57.225Z,98000.72
2022-12-26T03:20:32.300Z,97998.31
2022-12-26T03:23:08.044Z,97997.38
2022-12-26T03:26:22.221Z,97997.25
2022-12-26T03:28:48.736Z,97990.19
2022-12-26T03:31:16.610Z,98000.63
2022-12-26T03:34:05.518Z,97999.66
2022-12-26T03:37:13.620Z,98006.25
2022-12-26T03:40:04.686Z,98004.41
2022-12-26T03:43:14.007Z,98008.38
2022-12-26T03:46:20.367Z,98008.25
2022-12-26T03:49:11.600Z,97997.03
2022-12-26T03:52:18.127Z,97989.72
2022-12-26T03:55:29.271Z,97987.44
2022-12-26T03:58:47.918Z,97984.69
2022-12-26T04:01:38.234Z,98001.91
2022-12-26T04:04:49.790Z,98000.47
2022-12-26T04:07:56.102Z,98005.97
2022-12-26T04:10:58.306Z,98010.16
2022-12-26T04:14:03.783Z,98005.91
2022-12-26T04:16:59.633Z,98020.88
2022-12-26T04:20:09.188Z,98016.44
2022-12-26T04:23:05.905Z,97998.56
2022-12-26T04:26:11.452Z,97986.22
2022-12-26T04:28:56.780Z,97993.78
2022-12-26T04:32:09.834Z,98001.56
2022-12-26T04:35:09.168Z,98016.91
2022-12-26T04:38:02.227Z,98021.47
2022-12-26T04:40:55.452Z,98040.84
2022-12-26T04:43:50.443Z,98032.84
2022-12-26T04:46:24.720Z,98018.72
2022-12-26T04:49:12.963Z,98007.78
2022-12-26T04:51:39.821Z,98018.09
2022-12-26T04:54:07.165Z,98007.19
2022-12-26T04:56:33.953Z,98020.13
2022-12-26T04:59:01.072Z,98027.44
2022-12-26T05:01:46.270Z,98030.22
2022-12-26T05:04:34.534Z,98031.28
2022-12-26T05:07:22.816Z,98029.84
2022-12-26T05:09:53.168Z,98025.66
2022-12-26T05:12:20.354Z,98033.69
2022-12-26T05:14:46.815Z,98033.44
2022-12-26T05:17:33.018Z,98038.72
2022-12-26T05:20:18.203Z,98043.38
2022-12-26T05:23:04.974Z,98049.88
2022-12-26T05:25:56.441Z,98038.22
2022-12-26T05:28:41.619Z,98032.84
2022-12-26T05:31:11.229Z,98040.16
2022-12-26T05:33:56.556Z,98027.69
2022-12-26T05:36:28.749Z,98028.28
2022-12-26T05:38:56.148Z,98018.84
2022-12-26T05:41:24.014Z,98028.03
2022-12-26T05:43:50.661Z,98017.03
2022-12-26T05:46:17.211Z,98023.09
2022-12-26T05:48:43.844Z,98027.06
2022-12-26T05:51:10.329Z,98036.50
2022-12-26T05:53:36.811Z,98030.03
2022-12-26T05:56:11.849Z,98018.66
2022-12-26T05:58:39.131Z,98026.47
2022-12-26T06:01:16.173Z,98021.44
2022-12-26T06:03:47.516Z,98035.06
2022-12-26T06:06:16.022Z,98034.47
2022-12-26T06:08:43.274Z,98039.50
2022-12-26T06:11:12.871Z,98041.28
2022-12-26T06:13:41.138Z,98042.84
2022-12-26T06:16:18.498Z,98037.47
2022-12-26T06:18:45.228Z,98040.56
2022-12-26T06:21:16.814Z,98029.81
2022-12-26T06:23:43.672Z,98034.09
2022-12-26T06:26:12.505Z,98041.06
2022-12-26T06:28:41.729Z,98048.59
2022-12-26T06:31:14.354Z,98045.13
2022-12-26T06:33:40.977Z,98048.22
2022-12-26T06:36:14.821Z,98051.69
2022-12-26T06:38:42.252Z,98041.06
2022-12-26T06:41:13.996Z,98046.09
2022-12-26T06:43:40.887Z,98048.84
2022-12-26T06:46:12.762Z,98056.13
2022-12-26T06:48:39.808Z,98056.03
2022-12-26T06:51:16.481Z,98049.72
2022-12-26T06:53:43.529Z,98065.38
2022-12-26T06:56:22.812Z,98067.63
2022-12-26T06:58:54.727Z,98092.66
2022-12-26T07:01:22.853Z,98103.84
2022-12-26T07:03:52.550Z,98116.13
2022-12-26T07:06:26.899Z,98103.03
2022-12-26T07:09:03.261Z,98122.28
2022-12-26T07:11:35.164Z,98124.41
2022-12-26T07:14:02.338Z,98115.50
2022-12-26T07:16:29.080Z,98121.38
2022-12-26T07:18:58.303Z,98116.22
2022-12-26T07:21:26.512Z,98116.66
2022-12-26T07:23:54.828Z,98127.38
2022-12-26T07:26:23.598Z,98123.59
2022-12-26T07:28:57.140Z,98109.81
2022-12-26T07:31:25.413Z,98096.91
2022-12-26T07:33:55.864Z,98104.25
2022-12-26T07:36:24.941Z,98095.41
2022-12-26T07:38:51.543Z,98097.53
2022-12-26T07:41:36.865Z,98092.47
2022-12-26T07:44:03.822Z,98111.81
2022-12-26T07:46:30.633Z,98120.00
2022-12-26T07:48:57.321Z,98131.22
2022-12-26T07:51:23.948Z,98142.06
2022-12-26T07:53:50.602Z,98133.88
2022-12-26T07:56:17.180Z,98132.94
2022-12-26T07:58:43.852Z,98133.56
2022-12-26T08:01:10.471Z,98132.09
2022-12-26T08:03:38.190Z,98136.19
2022-12-26T08:06:04.829Z,98134.63
2022-12-26T08:08:31.330Z,98138.50
2022-12-26T08:11:06.841Z,98132.19
2022-12-26T08:13:33.864Z,98137.94
2022-12-26T08:16:06.994Z,98150.69
2022-12-26T08:18:34.049Z,98152.56
2022-12-26T08:21:00.610Z,98149.09
2022-12-26T08:23:27.842Z,98140.44
2022-12-26T08:25:54.699Z,98156.44
2022-12-26T08:28:21.362Z,98151.34
2022-12-26T08:30:49.701Z,98157.97
2022-12-26T08:33:16.639Z,98152.94
2022-12-26T08:35:43.930Z,98174.47
2022-12-26T08:38:10.518Z,98170.00
2022-12-26T08:40:44.953Z,98180.66
2022-12-26T08:43:30.185Z,98189.59
2022-12-26T08:46:11.638Z,98194.63
2022-12-26T08:48:40.438Z,98186.09
2022-12-26T08:51:13.854Z,98153.59
2022-12-26T08:53:40.778Z,98187.78
2022-12-26T08:56:13.754Z,98200.28
2022-12-26T08:58:42.041Z,98200.69
2022-12-26T09:01:16.523Z,98202.38
2022-12-26T09:03:44.464Z,98194.97
2022-12-26T09:06:14.293Z,98194.16
2022-12-26T09:08:42.220Z,98182.91
2022-12-26T09:11:14.201Z,98198.25
2022-12-26T09:13:42.938Z,98202.25
2022-12-26T09:16:22.711Z,98202.94
2022-12-26T09:18:56.088Z,98212.50
2022-12-26T09:21:23.667Z,98222.63
2022-12-26T09:23:50.936Z,98231.34
2022-12-26T09:26:20.164Z,98237.25
2022-12-26T09:28:47.817Z,98234.72
2022-12-26T09:31:24.437Z,98230.63
2022-12-26T09:33:52.450Z,98243.00
2022-12-26T09:36:24.951Z,98238.44
2022-12-26T09:38:52.918Z,98237.06
2022-12-26T09:42:01.607Z,98240.88
2022-12-26T09:44:55.506Z,98235.03
2022-12-26T09:48:28.392Z,98235.56
2022-12-26T09:50:55.049Z,98236.75
2022-12-26T09:53:35.908Z,98244.94
2022-12-26T09:56:13.954Z,98249.53
2022-12-26T09:58:56.563Z,98252.34
2022-12-26T10:01:36.144Z,98249.53
2022-12-26T10:04:13.373Z,98251.31
2022-12-26T10:06:57.415Z,98242.59
2022-12-26T10:09:44.066Z,98254.56
2022-12-26T10:12:41.638Z,98253.53
2022-12-26T10:15:41.748Z,98253.44
2022-12-26T10:18:35.715Z,98238.44
2022-12-26T10:21:29.336Z,98248.53
2022-12-26T10:24:09.164Z,98251.22
2022-12-26T10:26:43.769Z,98249.09
2022-12-26T10:29:10.170Z,98252.22
2022-12-26T10:31:52.476Z,98257.06
2022-12-26T10:34:21.177Z,98249.63
2022-12-26T10:36:54.849Z,98251.09
2022-12-26T10:39:30.478Z,98245.38
2022-12-26T10:42:03.745Z,98244.28
2022-12-26T10:44:30.268Z,98239.91
2022-12-26T10:47:24.791Z,98238.31
2022-12-26T10:49:52.333Z,98243.09
2022-12-26T10:52:26.255Z,98239.91
2022-12-26T10:55:28.081Z,98236.06
2022-12-26T10:57:53.663Z,98246.38
2022-12-26T11:00:24.959Z,98252.44
2022-12-26T11:03:15.629Z,98251.88
2022-12-26T11:06:08.147Z,98236.75
2022-12-26T11:08:43.170Z,98235.94
2022-12-26T11:11:45.639Z,98231.47
2022-12-26T11:14:39.671Z,98237.59
2022-12-26T11:17:12.685Z,98233.31
2022-12-26T11:19:44.000Z,98240.16
2022-12-26T11:22:29.050Z,98241.41
2022-12-26T11:25:13.706Z,98244.78
2022-12-26T11:27:44.406Z,98243.56
2022-12-26T11:30:13.773Z,98240.97
2022-12-26T11:32:48.460Z,98248.72
2022-12-26T11:35:28.359Z,98258.91
2022-12-26T11:37:58.122Z,98249.81
2022-12-26T11:40:38.136Z,98244.66
2022-12-26T11:43:15.539Z,98248.22
2022-12-26T11:45:50.062Z,98249.91
2022-12-26T11:48:25.792Z,98248.44
2022-12-26T11:50:53.874Z,98237.00
2022-12-26T11:53:23.557Z,98239.50
2022-12-26T11:56:04.741Z,98247.41
2022-12-26T11:58:35.433Z,98231.13
2022-12-26T12:01:01.798Z,98232.69
2022-12-26T12:03:51.131Z,98234.94
2022-12-26T12:07:01.011Z,98243.03
2022-12-26T12:09:43.230Z,98250.59
2022-12-26T12:12:22.573Z,98249.28
2022-12-26T12:14:54.796Z,98240.19
2022-12-26T12:17:51.771Z,98239.84
2022-12-26T12:20:51.984Z,98251.50
2022-12-26T12:23:58.720Z,98248.25
2022-12-26T12:27:31.082Z,98243.59
2022-12-26T12:30:24.319Z,98244.50
2022-12-26T12:33:04.580Z,98243.69
2022-12-26T12:36:08.383Z,98237.16
2022-12-26T12:38:58.089Z,98240.63
2022-12-26T12:42:00.629Z,98231.91
2022-12-26T12:44:50.370Z,98239.41
2022-12-26T12:47:49.953Z,98238.72
2022-12-26T12:50:44.042Z,98237.16
2022-12-26T12:53:31.349Z,98226.09
2022-12-26T12:57:01.628Z,98217.72
2022-12-26T12:59:52.647Z,98224.00
2022-12-26T13:02:32.700Z,98224.22
2022-12-26T13:05:37.097Z,98217.84
2022-12-26T13:08:43.103Z,98212.50
2022-12-26T13:11:31.643Z,98209.13
2022-12-26T13:14:07.375Z,98209.66
2022-12-26T13:16:43.539Z,98203.09
2022-12-26T13:19:25.413Z,98197.38
2022-12-26T13:21:57.479Z,98204.44
2022-12-26T13:24:49.690Z,98205.50
2022-12-26T13:27:25.689Z,98199.75
2022-12-26T13:29:52.616Z,98203.75
2022-12-26T13:32:33.354Z,98207.00
2022-12-26T13:35:02.888Z,98198.09
2022-12-26T13:37:35.221Z,98196.63
2022-12-26T13:40:15.169Z,98192.13
2022-12-26T13:43:10.722Z,98200.00
2022-12-26T13:45:37.271Z,98211.38
2022-12-26T13:48:12.669Z,98212.00
2022-12-26T13:50:53.415Z,98203.13
2022-12-26T13:53:39.913Z,98212.16
2022-12-26T13:56:18.262Z,98215.06
2022-12-26T13:59:03.262Z,98216.03
2022-12-26T14:01:53.696Z,98234.91
2022-12-26T14:05:08.959Z,98218.25
2022-12-26T14:07:58.830Z,98217.19
2022-12-26T14:10:40.077Z,98218.78
2022-12-26T14:13:56.618Z,98221.72
2022-12-26T14:16:49.077Z,98225.09
2022-12-26T14:19:40.032Z,98226.31
2022-12-26T14:22:57.385Z,98227.34
2022-12-26T14:25:51.162Z,98230.56
2022-12-26T14:28:51.090Z,98229.72
2022-12-26T14:31:41.991Z,98221.91
2022-12-26T14:34:48.264Z,98234.59
2022-12-26T14:37:31.551Z,98216.28
2022-12-26T14:40:15.313Z,98239.19
2022-12-26T14:43:12.640Z,98265.09
2022-12-26T14:45:51.028Z,98278.75
2022-12-26T14:48:17.557Z,98249.63
2022-12-26T14:50:49.172Z,98262.81
2022-12-26T14:53:24.788Z,98274.53
2022-12-26T14:56:10.273Z,98269.47
2022-12-26T14:58:44.319Z,98274.53
2022-12-26T15:01:12.714Z,98270.88
2022-12-26T15:04:04.102Z,98260.97
2022-12-26T15:06:52.523Z,98277.44
2022-12-26T15:10:33.634Z,98279.59
2022-12-26T15:13:35.608Z,98275.25
2022-12-26T15:16:22.596Z,98274.75
2022-12-26T15:19:23.393Z,98282.63
2022-12-26T15:22:21.698Z,98300.41
2022-12-26T15:25:18.889Z,98289.19
2022-12-26T15:27:59.151Z,98302.09
2022-12-26T15:31:27.892Z,98295.09
2022-12-26T15:34:22.129Z,98297.50
2022-12-26T15:37:16.152Z,98302.03
2022-12-26T15:40:27.352Z,98311.91
2022-12-26T15:43:24.659Z,98316.09
2022-12-26T15:46:16.114Z,98324.38
2022-12-26T15:49:35.784Z,98320.38
2022-12-26T15:52:13.019Z,98323.16
2022-12-26T15:54:51.304Z,98335.97
2022-12-26T15:57:30.744Z,98334.22
2022-12-26T16:00:15.938Z,98344.44
2022-12-26T16:03:10.202Z,98346.72
2022-12-26T16:05:56.593Z,98331.16
2022-12-26T16:09:18.888Z,98351.44
2022-12-26T16:11:54.039Z,98356.94
2022-12-26T16:14:39.202Z,98365.25
2022-12-26T16:17:21.220Z,98367.16
2022-12-26T16:19:51.858Z,98393.44
2022-12-26T16:22:43.615Z,98396.69
2022-12-26T16:25:16.978Z,98398.16
2022-12-26T16:27:46.922Z,98400.09
2022-12-26T16:30:22.329Z,98414.50
2022-12-26T16:32:50.438Z,98410.84
2022-12-26T16:35:26.705Z,98415.56
2022-12-26T16:37:57.559Z,98423.78
2022-12-26T16:40:33.790Z,98418.09
2022-12-26T16:43:05.873Z,98415.84
2022-12-26T16:45:37.367Z,98410.22
2022-12-26T16:48:12.152Z,98413.03
2022-12-26T16:50:56.496Z,98429.69
2022-12-26T16:53:45.313Z,98418.50
2022-12-26T16:56:26.786Z,98425.03
2022-12-26T16:59:17.826Z,98436.75
2022-12-26T17:01:59.339Z,98433.97
2022-12-26T17:04:29.938Z,98442.13
2022-12-26T17:07:06.539Z,98459.84
2022-12-26T17:09:44.830Z,98467.53
2022-12-26T17:12:27.024Z,98476.16
2022-12-26T17:14:56.694Z,98478.78
2022-12-26T17:17:23.118Z,98487.94
2022-12-26T17:19:54.428Z,98485.63
2022-12-26T17:22:37.308Z,98491.84
2022-12-26T17:25:27.850Z,98493.88
2022-12-26T17:28:09.937Z,98500.72
2022-12-26T17:30:43.273Z,98500.75
2022-12-26T17:33:17.705Z,98502.13
2022-12-26T17:39:10.806Z,98505.84
2022-12-26T17:41:49.002Z,98500.94
2022-12-26T17:44:35.471Z,98504.19
2022-12-26T17:47:27.003Z,98509.84
2022-12-26T17:49:55.732Z,98522.53
2022-12-26T17:52:28.696Z,98521.00
2022-12-26T17:54:58.551Z,98528.78
2022-12-26T17:57:28.519Z,98518.03
2022-12-26T17:59:56.089Z,98527.19
2022-12-26T18:02:23.680Z,98527.00
2022-12-26T18:04:53.855Z,98531.56
2022-12-26T18:07:30.879Z,98531.56
2022-12-26T18:09:59.305Z,98527.69
2022-12-26T18:12:25.877Z,98531.84
2022-12-26T18:14:57.528Z,98538.13
2022-12-26T18:17:29.492Z,98544.09
2022-12-26T18:19:57.659Z,98554.72
2022-12-26T18:22:24.136Z,98568.34
2022-12-26T18:24:50.628Z,98567.41
2022-12-26T18:27:22.873Z,98556.59
2022-12-26T18:29:50.252Z,98563.28
2022-12-26T18:32:29.523Z,98559.78
2022-12-26T18:34:57.076Z,98565.03
2022-12-26T18:37:26.538Z,98563.00
2022-12-26T18:39:53.429Z,98567.06
2022-12-26T18:42:20.210Z,98577.03
2022-12-26T18:44:47.039Z,98579.34
2022-12-26T18:47:17.906Z,98587.84
2022-12-26T18:49:45.958Z,98598.00
2022-12-26T18:52:17.903Z,98633.31
2022-12-26T18:54:45.423Z,98623.63
2022-12-26T18:57:19.324Z,98624.22
2022-12-26T18:59:47.994Z,98638.44
2022-12-26T19:02:19.376Z,98650.03
2022-12-26T19:04:48.409Z,98660.56
2022-12-26T19:07:17.402Z,98654.56
2022-12-26T19:09:55.801Z,98678.16
2022-12-26T19:12:23.845Z,98680.56
2022-12-26T19:14:51.176Z,98683.56
2022-12-26T19:17:17.945Z,98693.94
2022-12-26T19:19:44.656Z,98696.63
2022-12-26T19:22:11.709Z,98706.66
2022-12-26T19:24:38.233Z,98708.16
2022-12-26T19:27:04.940Z,98720.06
2022-12-26T19:29:31.566Z,98716.63
2022-12-26T19:31:58.149Z,98715.78
2022-12-26T19:34:24.621Z,98723.19
2022-12-26T19:36:51.124Z,98721.03
2022-12-26T19:39:17.728Z,98720.31
2022-12-26T19:41:44.268Z,98733.56
2022-12-26T19:44:10.855Z,98748.09
2022-12-26T19:46:37.342Z,98760.41
2022-12-26T19:49:04.125Z,98754.03
2022-12-26T19:51:30.611Z,98759.78
2022-12-26T19:53:57.107Z,98765.31
2022-12-26T19:56:27.877Z,98773.31
2022-12-26T19:58:57.013Z,98780.53
2022-12-26T20:01:28.510Z,98776.47
2022-12-26T20:03:57.988Z,98780.06
2022-12-26T20:06:27.616Z,98787.25
2022-12-26T20:08:58.587Z,98793.31
2022-12-26T20:11:30.684Z,98794.78
2022-12-26T20:13:58.921Z,98797.28
2022-12-26T20:19:12.869Z,98803.91
2022-12-26T20:21:40.694Z,98804.31
2022-12-26T20:24:11.351Z,98819.50
2022-12-26T20:26:38.386Z,98822.00
2022-12-26T20:29:05.197Z,98821.25
2022-12-26T20:31:32.994Z,98824.72
2022-12-26T20:34:00.182Z,98832.75
2022-12-26T20:36:31.411Z,98835.84
2022-12-26T20:39:01.370Z,98838.69
2022-12-26T20:41:28.962Z,98851.78
2022-12-26T20:43:56.232Z,98851.84
2022-12-26T20:46:31.988Z,98857.94
2022-12-26T20:49:01.823Z,98857.53
2022-12-26T20:51:37.364Z,98861.81
2022-12-26T20:54:09.347Z,98873.22
2022-12-26T20:56:37.384Z,98881.53
2022-12-26T20:59:08.387Z,98881.31
2022-12-26T21:01:37.449Z,98888.03
2022-12-26T21:04:04.334Z,98893.13
2022-12-26T21:06:35.904Z,98902.28
2022-12-26T21:09:04.625Z,98905.91
2022-12-26T21:11:38.181Z,98909.59
2022-12-26T21:14:10.398Z,98909.72
2022-12-26T21:16:41.890Z,98917.47
2022-12-26T21:19:14.976Z,98914.03
2022-12-26T21:21:45.701Z,98921.88
2022-12-26T21:24:33.990Z,98928.22
2022-12-26T21:27:00.746Z,98931.88
2022-12-26T21:29:32.557Z,98934.72
2022-12-26T21:32:01.462Z,98934.28
2022-12-26T21:34:31.525Z,98935.34
2022-12-26T21:37:17.329Z,98942.25
2022-12-26T21:39:44.250Z,98947.22
2022-12-26T21:42:11.245Z,98950.50
2022-12-26T21:44:37.971Z,98963.44
2022-12-26T21:47:07.826Z,98963.44
2022-12-26T21:49:34.991Z,98962.16
2022-12-26T21:52:01.612Z,98969.16
2022-12-26T21:54:49.311Z,98971.75
2022-12-26T21:57:18.052Z,98970.19
2022-12-26T21:59:57.394Z,98980.63
2022-12-26T22:02:54.112Z,98985.91
2022-12-26T22:05:24.527Z,98980.88
2022-12-26T22:08:00.398Z,98983.59
2022-12-26T22:10:50.159Z,98978.72
2022-12-26T22:13:18.647Z,98990.00
2022-12-26T22:16:03.793Z,98984.88
2022-12-26T22:18:36.133Z,98985.72
2022-12-26T22:21:09.143Z,98988.66
2022-12-26T22:23:36.994Z,98998.28
2022-12-26T22:26:04.712Z,98992.31
2022-12-26T22:28:33.591Z,98992.41
2022-12-26T22:31:00.860Z,99000.19
2022-12-26T22:33:29.063Z,99000.97
2022-12-26T22:35:55.814Z,99002.97
2022-12-26T22:38:23.449Z,99013.38
2022-12-26T22:40:56.152Z,99019.56
2022-12-26T22:43:23.691Z,99023.13
2022-12-26T22:45:51.311Z,99020.78
2022-12-26T22:48:19.069Z,99024.31
2022-12-26T22:50:48.849Z,99027.69
2022-12-26T22:53:15.336Z,99030.41
2022-12-26T22:55:48.719Z,99041.44
2022-12-26T22:58:17.409Z,99034.31
2022-12-26T23:00:45.824Z,99040.34
2022-12-26T23:03:13.152Z,99041.31
2022-12-26T23:05:40.736Z,99043.31
2022-12-26T23:08:08.391Z,99047.66
2022-12-26T23:10:35.680Z,99052.88
2022-12-26T23:13:02.823Z,99052.09
2022-12-26T23:15:29.827Z,99057.66
2022-12-26T23:18:20.771Z,99057.72
2022-12-26T23:21:06.507Z,99067.06
2022-12-26T23:23:33.409Z,99064.47
2022-12-26T23:26:01.227Z,99072.41
2022-12-26T23:28:46.879Z,99067.63
2022-12-26T23:31:13.896Z,99066.00
2022-12-26T23:33:40.768Z,99062.31
2022-12-26T23:36:08.021Z,99070.03
2022-12-26T23:38:34.496Z,99070.78
2022-12-26T23:41:00.983Z,99073.25
2022-12-26T23:43:27.508Z,99065.50
2022-12-26T23:45:54.040Z,99073.25
2022-12-26T23:48:20.537Z,99071.50
2022-12-26T23:50:47.149Z,99068.47
2022-12-26T23:53:13.642Z,99069.66
2022-12-26T23:55:41.716Z,99076.66
2022-12-26T23:58:08.772Z,99079.13
